sensor_id;sensor_type;location;lat;lon;timestamp;P1;durP1;ratioP1;P2;durP2;ratioP2
76310;SDS011;65120;59.304;18.294;2023-03-21T00:01:43;0.45;;;0.30;;
76310;SDS011;65120;59.304;18.294;2023-03-21T00:04:10;0.45;;;0.20;;
76310;SDS011;65120;59.304;18.294;2023-03-21T00:06:37;0.73;;;0.20;;
76310;SDS011;65120;59.304;18.294;2023-03-21T00:09:04;0.77;;;0.40;;
76310;SDS011;65120;59.304;18.294;2023-03-21T00:11:31;0.70;;;0.30;;
76310;SDS011;65120;59.304;18.294;2023-03-21T00:13:58;0.68;;;0.30;;
76310;SDS011;65120;59.304;18.294;2023-03-21T00:16:26;0.65;;;0.40;;
76310;SDS011;65120;59.304;18.294;2023-03-21T00:19:01;0.55;;;0.50;;
76310;SDS011;65120;59.304;18.294;2023-03-21T00:21:30;0.55;;;0.30;;
76310;SDS011;65120;59.304;18.294;2023-03-21T00:23:58;0.90;;;0.30;;
76310;SDS011;65120;59.304;18.294;2023-03-21T00:26:26;1.63;;;0.38;;
76310;SDS011;65120;59.304;18.294;2023-03-21T00:28:53;1.98;;;0.52;;
76310;SDS011;65120;59.304;18.294;2023-03-21T00:31:19;0.70;;;0.43;;
76310;SDS011;65120;59.304;18.294;2023-03-21T00:33:46;2.55;;;0.50;;
76310;SDS011;65120;59.304;18.294;2023-03-21T00:36:15;3.00;;;0.50;;
76310;SDS011;65120;59.304;18.294;2023-03-21T00:38:42;3.42;;;0.70;;
76310;SDS011;65120;59.304;18.294;2023-03-21T00:41:10;1.10;;;1.00;;
76310;SDS011;65120;59.304;18.294;2023-03-21T00:43:38;0.80;;;0.40;;
76310;SDS011;65120;59.304;18.294;2023-03-21T00:46:05;2.08;;;0.50;;
76310;SDS011;65120;59.304;18.294;2023-03-21T00:48:32;1.35;;;0.50;;
76310;SDS011;65120;59.304;18.294;2023-03-21T00:50:59;0.80;;;0.50;;
76310;SDS011;65120;59.304;18.294;2023-03-21T00:53:28;0.93;;;0.50;;
76310;SDS011;65120;59.304;18.294;2023-03-21T00:55:55;0.90;;;0.40;;
76310;SDS011;65120;59.304;18.294;2023-03-21T00:58:22;0.95;;;0.40;;
76310;SDS011;65120;59.304;18.294;2023-03-21T01:00:50;1.58;;;0.40;;
76310;SDS011;65120;59.304;18.294;2023-03-21T01:03:17;1.17;;;0.43;;
76310;SDS011;65120;59.304;18.294;2023-03-21T01:05:45;6.85;;;0.93;;
76310;SDS011;65120;59.304;18.294;2023-03-21T01:08:34;1.20;;;0.50;;
76310;SDS011;65120;59.304;18.294;2023-03-21T01:11:04;2.95;;;0.65;;
76310;SDS011;65120;59.304;18.294;2023-03-21T01:13:32;1.38;;;0.52;;
76310;SDS011;65120;59.304;18.294;2023-03-21T01:15:59;5.65;;;0.50;;
76310;SDS011;65120;59.304;18.294;2023-03-21T01:18:29;2.00;;;0.80;;
76310;SDS011;65120;59.304;18.294;2023-03-21T01:20:58;1.73;;;0.57;;
76310;SDS011;65120;59.304;18.294;2023-03-21T01:23:26;1.90;;;0.70;;
76310;SDS011;65120;59.304;18.294;2023-03-21T01:25:56;1.42;;;0.60;;
76310;SDS011;65120;59.304;18.294;2023-03-21T01:28:25;1.10;;;0.65;;
76310;SDS011;65120;59.304;18.294;2023-03-21T01:30:53;1.27;;;0.77;;
76310;SDS011;65120;59.304;18.294;2023-03-21T01:33:21;1.98;;;0.75;;
76310;SDS011;65120;59.304;18.294;2023-03-21T01:35:48;0.98;;;0.50;;
76310;SDS011;65120;59.304;18.294;2023-03-21T01:38:15;1.95;;;0.50;;
76310;SDS011;65120;59.304;18.294;2023-03-21T01:40:43;0.60;;;0.40;;
76310;SDS011;65120;59.304;18.294;2023-03-21T01:43:19;3.85;;;0.60;;
76310;SDS011;65120;59.304;18.294;2023-03-21T01:49:02;0.57;;;0.30;;
76310;SDS011;65120;59.304;18.294;2023-03-21T01:51:31;2.10;;;0.90;;
76310;SDS011;65120;59.304;18.294;2023-03-21T01:54:01;1.50;;;0.50;;
76310;SDS011;65120;59.304;18.294;2023-03-21T01:56:32;1.30;;;0.60;;
76310;SDS011;65120;59.304;18.294;2023-03-21T01:59:05;1.45;;;0.63;;
76310;SDS011;65120;59.304;18.294;2023-03-21T02:01:36;4.27;;;1.40;;
76310;SDS011;65120;59.304;18.294;2023-03-21T02:04:06;2.78;;;1.35;;
76310;SDS011;65120;59.304;18.294;2023-03-21T02:06:35;2.28;;;1.08;;
76310;SDS011;65120;59.304;18.294;2023-03-21T02:09:10;4.95;;;1.15;;
76310;SDS011;65120;59.304;18.294;2023-03-21T02:11:39;4.07;;;1.30;;
76310;SDS011;65120;59.304;18.294;2023-03-21T02:14:13;4.57;;;1.20;;
76310;SDS011;65120;59.304;18.294;2023-03-21T02:16:51;3.75;;;1.50;;
76310;SDS011;65120;59.304;18.294;2023-03-21T02:22:58;1.65;;;0.63;;
76310;SDS011;65120;59.304;18.294;2023-03-21T02:28:46;1.35;;;0.45;;
76310;SDS011;65120;59.304;18.294;2023-03-21T02:31:24;0.90;;;0.50;;
76310;SDS011;65120;59.304;18.294;2023-03-21T02:37:16;1.55;;;0.45;;
76310;SDS011;65120;59.304;18.294;2023-03-21T02:39:49;6.85;;;0.65;;
76310;SDS011;65120;59.304;18.294;2023-03-21T02:42:23;1.88;;;0.60;;
76310;SDS011;65120;59.304;18.294;2023-03-21T02:44:59;1.58;;;0.70;;
76310;SDS011;65120;59.304;18.294;2023-03-21T02:47:32;2.08;;;0.70;;
76310;SDS011;65120;59.304;18.294;2023-03-21T02:50:03;2.92;;;1.20;;
76310;SDS011;65120;59.304;18.294;2023-03-21T02:52:36;3.53;;;0.70;;
76310;SDS011;65120;59.304;18.294;2023-03-21T02:55:06;2.67;;;1.10;;
76310;SDS011;65120;59.304;18.294;2023-03-21T02:57:38;2.38;;;0.95;;
76310;SDS011;65120;59.304;18.294;2023-03-21T03:00:08;2.80;;;1.25;;
76310;SDS011;65120;59.304;18.294;2023-03-21T03:02:38;1.80;;;0.77;;
76310;SDS011;65120;59.304;18.294;2023-03-21T03:05:13;7.43;;;1.20;;
76310;SDS011;65120;59.304;18.294;2023-03-21T03:08:01;4.25;;;1.10;;
76310;SDS011;65120;59.304;18.294;2023-03-21T03:10:46;8.38;;;1.52;;
76310;SDS011;65120;59.304;18.294;2023-03-21T03:13:28;3.55;;;1.50;;
76310;SDS011;65120;59.304;18.294;2023-03-21T03:16:05;5.30;;;1.88;;
76310;SDS011;65120;59.304;18.294;2023-03-21T03:18:40;10.48;;;2.50;;
76310;SDS011;65120;59.304;18.294;2023-03-21T03:21:15;8.88;;;2.72;;
76310;SDS011;65120;59.304;18.294;2023-03-21T03:23:48;6.28;;;1.90;;
76310;SDS011;65120;59.304;18.294;2023-03-21T03:26:18;7.55;;;1.75;;
76310;SDS011;65120;59.304;18.294;2023-03-21T03:28:51;4.45;;;1.95;;
76310;SDS011;65120;59.304;18.294;2023-03-21T03:31:22;4.07;;;1.70;;
76310;SDS011;65120;59.304;18.294;2023-03-21T03:33:56;4.70;;;1.67;;
76310;SDS011;65120;59.304;18.294;2023-03-21T03:36:29;4.75;;;1.73;;
76310;SDS011;65120;59.304;18.294;2023-03-21T03:39:02;4.22;;;1.95;;
76310;SDS011;65120;59.304;18.294;2023-03-21T03:41:31;4.82;;;1.45;;
76310;SDS011;65120;59.304;18.294;2023-03-21T03:44:02;5.20;;;1.92;;
76310;SDS011;65120;59.304;18.294;2023-03-21T03:46:30;2.88;;;1.13;;
76310;SDS011;65120;59.304;18.294;2023-03-21T03:49:00;3.55;;;1.33;;
76310;SDS011;65120;59.304;18.294;2023-03-21T03:51:32;3.17;;;1.65;;
76310;SDS011;65120;59.304;18.294;2023-03-21T03:54:06;3.70;;;1.40;;
76310;SDS011;65120;59.304;18.294;2023-03-21T03:56:36;2.30;;;1.20;;
76310;SDS011;65120;59.304;18.294;2023-03-21T03:59:03;3.30;;;1.70;;
76310;SDS011;65120;59.304;18.294;2023-03-21T04:01:31;3.92;;;1.60;;
76310;SDS011;65120;59.304;18.294;2023-03-21T04:03:59;4.03;;;1.55;;
76310;SDS011;65120;59.304;18.294;2023-03-21T04:06:26;4.22;;;1.60;;
76310;SDS011;65120;59.304;18.294;2023-03-21T04:08:53;3.20;;;1.20;;
76310;SDS011;65120;59.304;18.294;2023-03-21T04:11:22;3.95;;;1.23;;
76310;SDS011;65120;59.304;18.294;2023-03-21T04:13:49;3.45;;;1.52;;
76310;SDS011;65120;59.304;18.294;2023-03-21T04:16:16;4.30;;;1.48;;
76310;SDS011;65120;59.304;18.294;2023-03-21T04:18:43;4.60;;;1.98;;
76310;SDS011;65120;59.304;18.294;2023-03-21T04:21:11;3.25;;;1.48;;
76310;SDS011;65120;59.304;18.294;2023-03-21T04:23:38;2.40;;;1.33;;
76310;SDS011;65120;59.304;18.294;2023-03-21T04:26:06;11.93;;;1.70;;
76310;SDS011;65120;59.304;18.294;2023-03-21T04:28:34;5.40;;;1.45;;
76310;SDS011;65120;59.304;18.294;2023-03-21T04:31:01;3.97;;;0.85;;
76310;SDS011;65120;59.304;18.294;2023-03-21T04:33:30;5.90;;;1.23;;
76310;SDS011;65120;59.304;18.294;2023-03-21T04:36:02;6.18;;;1.10;;
76310;SDS011;65120;59.304;18.294;2023-03-21T04:38:30;4.22;;;1.25;;
76310;SDS011;65120;59.304;18.294;2023-03-21T04:40:58;2.35;;;1.52;;
76310;SDS011;65120;59.304;18.294;2023-03-21T04:43:25;2.72;;;1.80;;
76310;SDS011;65120;59.304;18.294;2023-03-21T04:45:56;5.28;;;1.13;;
76310;SDS011;65120;59.304;18.294;2023-03-21T04:48:23;3.20;;;1.23;;
76310;SDS011;65120;59.304;18.294;2023-03-21T04:50:50;6.30;;;1.60;;
76310;SDS011;65120;59.304;18.294;2023-03-21T04:53:17;4.20;;;0.85;;
76310;SDS011;65120;59.304;18.294;2023-03-21T04:55:44;2.38;;;1.15;;
76310;SDS011;65120;59.304;18.294;2023-03-21T04:58:11;11.77;;;1.20;;
76310;SDS011;65120;59.304;18.294;2023-03-21T05:00:38;3.25;;;1.85;;
76310;SDS011;65120;59.304;18.294;2023-03-21T05:03:07;3.47;;;1.13;;
76310;SDS011;65120;59.304;18.294;2023-03-21T05:05:34;11.82;;;1.20;;
76310;SDS011;65120;59.304;18.294;2023-03-21T05:08:02;6.68;;;1.08;;
76310;SDS011;65120;59.304;18.294;2023-03-21T05:10:30;5.28;;;1.23;;
76310;SDS011;65120;59.304;18.294;2023-03-21T05:12:57;6.43;;;1.00;;
76310;SDS011;65120;59.304;18.294;2023-03-21T05:15:24;7.60;;;1.00;;
76310;SDS011;65120;59.304;18.294;2023-03-21T05:17:51;1.92;;;0.98;;
76310;SDS011;65120;59.304;18.294;2023-03-21T05:20:20;5.40;;;0.88;;
76310;SDS011;65120;59.304;18.294;2023-03-21T05:22:46;1.05;;;0.60;;
76310;SDS011;65120;59.304;18.294;2023-03-21T05:25:16;5.28;;;0.60;;
76310;SDS011;65120;59.304;18.294;2023-03-21T05:27:58;6.30;;;0.70;;
76310;SDS011;65120;59.304;18.294;2023-03-21T05:30:26;3.58;;;0.50;;
76310;SDS011;65120;59.304;18.294;2023-03-21T05:32:54;1.60;;;0.73;;
76310;SDS011;65120;59.304;18.294;2023-03-21T05:35:22;1.65;;;0.50;;
76310;SDS011;65120;59.304;18.294;2023-03-21T05:37:49;4.25;;;0.60;;
76310;SDS011;65120;59.304;18.294;2023-03-21T05:40:16;1.05;;;0.55;;
76310;SDS011;65120;59.304;18.294;2023-03-21T05:42:44;2.38;;;0.75;;
76310;SDS011;65120;59.304;18.294;2023-03-21T05:45:11;3.88;;;0.85;;
76310;SDS011;65120;59.304;18.294;2023-03-21T05:47:38;8.55;;;0.80;;
76310;SDS011;65120;59.304;18.294;2023-03-21T05:50:05;2.53;;;0.52;;
76310;SDS011;65120;59.304;18.294;2023-03-21T05:52:34;2.47;;;0.90;;
76310;SDS011;65120;59.304;18.294;2023-03-21T05:55:01;1.75;;;0.60;;
76310;SDS011;65120;59.304;18.294;2023-03-21T05:57:28;4.72;;;0.52;;
76310;SDS011;65120;59.304;18.294;2023-03-21T05:59:59;1.02;;;0.60;;
76310;SDS011;65120;59.304;18.294;2023-03-21T06:02:26;4.68;;;0.70;;
76310;SDS011;65120;59.304;18.294;2023-03-21T06:04:53;2.10;;;0.90;;
76310;SDS011;65120;59.304;18.294;2023-03-21T06:07:20;6.57;;;0.70;;
76310;SDS011;65120;59.304;18.294;2023-03-21T06:09:48;3.92;;;0.68;;
76310;SDS011;65120;59.304;18.294;2023-03-21T06:12:15;7.28;;;0.93;;
76310;SDS011;65120;59.304;18.294;2023-03-21T06:14:42;2.92;;;0.88;;
76310;SDS011;65120;59.304;18.294;2023-03-21T06:17:09;4.18;;;0.93;;
76310;SDS011;65120;59.304;18.294;2023-03-21T06:19:36;4.95;;;1.08;;
76310;SDS011;65120;59.304;18.294;2023-03-21T06:22:03;4.90;;;1.10;;
76310;SDS011;65120;59.304;18.294;2023-03-21T06:24:30;12.10;;;1.58;;
76310;SDS011;65120;59.304;18.294;2023-03-21T06:26:58;5.00;;;0.73;;
76310;SDS011;65120;59.304;18.294;2023-03-21T06:29:25;3.75;;;1.20;;
76310;SDS011;65120;59.304;18.294;2023-03-21T06:31:52;6.22;;;1.27;;
76310;SDS011;65120;59.304;18.294;2023-03-21T06:34:19;6.15;;;1.13;;
76310;SDS011;65120;59.304;18.294;2023-03-21T06:36:45;2.72;;;1.23;;
76310;SDS011;65120;59.304;18.294;2023-03-21T06:39:12;2.10;;;0.80;;
76310;SDS011;65120;59.304;18.294;2023-03-21T06:41:40;2.45;;;0.55;;
76310;SDS011;65120;59.304;18.294;2023-03-21T06:44:08;1.58;;;0.70;;
76310;SDS011;65120;59.304;18.294;2023-03-21T06:46:35;8.40;;;0.95;;
76310;SDS011;65120;59.304;18.294;2023-03-21T06:49:02;3.65;;;0.75;;
76310;SDS011;65120;59.304;18.294;2023-03-21T06:51:29;3.08;;;0.70;;
76310;SDS011;65120;59.304;18.294;2023-03-21T06:53:56;5.20;;;1.00;;
76310;SDS011;65120;59.304;18.294;2023-03-21T06:56:23;3.88;;;1.05;;
76310;SDS011;65120;59.304;18.294;2023-03-21T06:58:50;6.15;;;0.80;;
76310;SDS011;65120;59.304;18.294;2023-03-21T07:01:18;1.70;;;0.82;;
76310;SDS011;65120;59.304;18.294;2023-03-21T07:03:45;1.65;;;0.82;;
76310;SDS011;65120;59.304;18.294;2023-03-21T07:06:12;1.88;;;0.95;;
76310;SDS011;65120;59.304;18.294;2023-03-21T07:08:39;1.80;;;1.00;;
76310;SDS011;65120;59.304;18.294;2023-03-21T07:11:06;1.83;;;0.88;;
76310;SDS011;65120;59.304;18.294;2023-03-21T07:13:34;2.58;;;0.90;;
76310;SDS011;65120;59.304;18.294;2023-03-21T07:16:02;3.05;;;1.00;;
76310;SDS011;65120;59.304;18.294;2023-03-21T07:18:31;4.20;;;1.17;;
76310;SDS011;65120;59.304;18.294;2023-03-21T07:20:57;2.15;;;0.93;;
76310;SDS011;65120;59.304;18.294;2023-03-21T07:23:25;0.95;;;0.60;;
76310;SDS011;65120;59.304;18.294;2023-03-21T07:25:52;2.22;;;0.98;;
76310;SDS011;65120;59.304;18.294;2023-03-21T07:28:20;3.65;;;0.90;;
76310;SDS011;65120;59.304;18.294;2023-03-21T07:30:50;2.05;;;1.13;;
76310;SDS011;65120;59.304;18.294;2023-03-21T07:33:19;3.92;;;1.20;;
76310;SDS011;65120;59.304;18.294;2023-03-21T07:35:48;3.92;;;1.80;;
76310;SDS011;65120;59.304;18.294;2023-03-21T07:38:15;3.35;;;1.17;;
76310;SDS011;65120;59.304;18.294;2023-03-21T07:40:42;3.72;;;1.83;;
76310;SDS011;65120;59.304;18.294;2023-03-21T07:43:10;3.53;;;1.60;;
76310;SDS011;65120;59.304;18.294;2023-03-21T07:45:37;3.13;;;1.60;;
76310;SDS011;65120;59.304;18.294;2023-03-21T07:48:04;2.35;;;1.50;;
76310;SDS011;65120;59.304;18.294;2023-03-21T07:50:31;3.47;;;1.67;;
76310;SDS011;65120;59.304;18.294;2023-03-21T07:52:59;3.67;;;1.70;;
76310;SDS011;65120;59.304;18.294;2023-03-21T07:55:26;2.60;;;1.35;;
76310;SDS011;65120;59.304;18.294;2023-03-21T07:57:53;2.83;;;1.40;;
76310;SDS011;65120;59.304;18.294;2023-03-21T08:00:21;4.18;;;2.15;;
76310;SDS011;65120;59.304;18.294;2023-03-21T08:02:49;3.17;;;1.70;;
76310;SDS011;65120;59.304;18.294;2023-03-21T08:05:19;2.88;;;1.58;;
76310;SDS011;65120;59.304;18.294;2023-03-21T08:07:47;3.38;;;1.83;;
76310;SDS011;65120;59.304;18.294;2023-03-21T08:10:15;3.45;;;1.50;;
76310;SDS011;65120;59.304;18.294;2023-03-21T08:12:43;4.82;;;1.92;;
76310;SDS011;65120;59.304;18.294;2023-03-21T08:15:11;3.90;;;2.05;;
76310;SDS011;65120;59.304;18.294;2023-03-21T08:17:39;4.40;;;1.90;;
76310;SDS011;65120;59.304;18.294;2023-03-21T08:20:10;4.18;;;1.63;;
76310;SDS011;65120;59.304;18.294;2023-03-21T08:22:39;3.17;;;2.03;;
76310;SDS011;65120;59.304;18.294;2023-03-21T08:25:06;4.50;;;2.58;;
76310;SDS011;65120;59.304;18.294;2023-03-21T08:27:38;3.33;;;1.85;;
76310;SDS011;65120;59.304;18.294;2023-03-21T08:30:07;6.60;;;1.48;;
76310;SDS011;65120;59.304;18.294;2023-03-21T08:32:34;3.03;;;1.73;;
76310;SDS011;65120;59.304;18.294;2023-03-21T08:35:03;2.33;;;1.15;;
76310;SDS011;65120;59.304;18.294;2023-03-21T08:37:31;4.38;;;1.83;;
76310;SDS011;65120;59.304;18.294;2023-03-21T08:39:58;3.25;;;1.48;;
76310;SDS011;65120;59.304;18.294;2023-03-21T08:42:25;3.05;;;1.77;;
76310;SDS011;65120;59.304;18.294;2023-03-21T08:44:53;3.42;;;1.52;;
76310;SDS011;65120;59.304;18.294;2023-03-21T08:47:20;3.13;;;1.42;;
76310;SDS011;65120;59.304;18.294;2023-03-21T08:49:47;2.72;;;1.10;;
76310;SDS011;65120;59.304;18.294;2023-03-21T08:52:14;1.95;;;1.40;;
76310;SDS011;65120;59.304;18.294;2023-03-21T08:54:40;3.00;;;1.63;;
76310;SDS011;65120;59.304;18.294;2023-03-21T08:57:09;2.97;;;1.98;;
76310;SDS011;65120;59.304;18.294;2023-03-21T08:59:36;2.10;;;1.02;;
76310;SDS011;65120;59.304;18.294;2023-03-21T09:02:05;1.92;;;1.33;;
76310;SDS011;65120;59.304;18.294;2023-03-21T09:04:32;3.60;;;1.52;;
76310;SDS011;65120;59.304;18.294;2023-03-21T09:06:59;2.33;;;1.25;;
76310;SDS011;65120;59.304;18.294;2023-03-21T09:09:29;3.28;;;1.70;;
76310;SDS011;65120;59.304;18.294;2023-03-21T09:11:55;4.07;;;1.02;;
76310;SDS011;65120;59.304;18.294;2023-03-21T09:14:22;2.67;;;1.40;;
76310;SDS011;65120;59.304;18.294;2023-03-21T09:16:49;2.20;;;1.02;;
76310;SDS011;65120;59.304;18.294;2023-03-21T09:19:17;2.90;;;1.88;;
76310;SDS011;65120;59.304;18.294;2023-03-21T09:21:44;2.05;;;1.02;;
76310;SDS011;65120;59.304;18.294;2023-03-21T09:24:12;1.75;;;1.13;;
76310;SDS011;65120;59.304;18.294;2023-03-21T09:26:39;2.60;;;1.35;;
76310;SDS011;65120;59.304;18.294;2023-03-21T09:29:08;3.15;;;1.30;;
76310;SDS011;65120;59.304;18.294;2023-03-21T09:31:35;1.23;;;0.80;;
76310;SDS011;65120;59.304;18.294;2023-03-21T09:34:04;2.30;;;0.88;;
76310;SDS011;65120;59.304;18.294;2023-03-21T09:36:32;1.85;;;1.20;;
76310;SDS011;65120;59.304;18.294;2023-03-21T09:39:00;1.85;;;1.10;;
76310;SDS011;65120;59.304;18.294;2023-03-21T09:41:31;2.97;;;0.77;;
76310;SDS011;65120;59.304;18.294;2023-03-21T09:44:14;3.83;;;1.67;;
76310;SDS011;65120;59.304;18.294;2023-03-21T09:46:54;2.05;;;0.80;;
76310;SDS011;65120;59.304;18.294;2023-03-21T09:49:29;5.05;;;0.82;;
76310;SDS011;65120;59.304;18.294;2023-03-21T09:52:02;2.50;;;0.80;;
76310;SDS011;65120;59.304;18.294;2023-03-21T09:54:37;0.80;;;0.75;;
76310;SDS011;65120;59.304;18.294;2023-03-21T09:57:10;1.13;;;0.70;;
76310;SDS011;65120;59.304;18.294;2023-03-21T09:59:44;1.60;;;0.80;;
76310;SDS011;65120;59.304;18.294;2023-03-21T10:02:18;1.10;;;0.55;;
76310;SDS011;65120;59.304;18.294;2023-03-21T10:04:56;1.02;;;0.70;;
76310;SDS011;65120;59.304;18.294;2023-03-21T10:07:25;1.05;;;0.80;;
76310;SDS011;65120;59.304;18.294;2023-03-21T10:09:55;1.55;;;0.60;;
76310;SDS011;65120;59.304;18.294;2023-03-21T10:12:24;0.80;;;0.60;;
76310;SDS011;65120;59.304;18.294;2023-03-21T10:14:55;0.95;;;0.60;;
76310;SDS011;65120;59.304;18.294;2023-03-21T10:17:25;1.73;;;0.60;;
76310;SDS011;65120;59.304;18.294;2023-03-21T10:20:00;1.35;;;0.73;;
76310;SDS011;65120;59.304;18.294;2023-03-21T10:22:40;1.60;;;0.60;;
76310;SDS011;65120;59.304;18.294;2023-03-21T10:25:12;1.08;;;0.80;;
76310;SDS011;65120;59.304;18.294;2023-03-21T10:27:40;1.05;;;0.52;;
76310;SDS011;65120;59.304;18.294;2023-03-21T10:30:10;0.77;;;0.50;;
76310;SDS011;65120;59.304;18.294;2023-03-21T10:32:49;1.42;;;0.50;;
76310;SDS011;65120;59.304;18.294;2023-03-21T10:35:16;1.27;;;0.40;;
76310;SDS011;65120;59.304;18.294;2023-03-21T10:37:46;0.50;;;0.30;;
76310;SDS011;65120;59.304;18.294;2023-03-21T10:40:14;2.20;;;0.32;;
76310;SDS011;65120;59.304;18.294;2023-03-21T10:42:41;0.77;;;0.35;;
76310;SDS011;65120;59.304;18.294;2023-03-21T10:45:13;0.60;;;0.40;;
76310;SDS011;65120;59.304;18.294;2023-03-21T10:47:41;1.58;;;0.30;;
76310;SDS011;65120;59.304;18.294;2023-03-21T10:56:02;2.60;;;0.17;;
76310;SDS011;65120;59.304;18.294;2023-03-21T10:58:34;0.20;;;0.10;;
76310;SDS011;65120;59.304;18.294;2023-03-21T11:01:05;0.20;;;0.10;;
76310;SDS011;65120;59.304;18.294;2023-03-21T11:03:37;0.40;;;0.10;;
76310;SDS011;65120;59.304;18.294;2023-03-21T11:06:10;0.25;;;0.10;;
76310;SDS011;65120;59.304;18.294;2023-03-21T11:08:40;2.22;;;0.25;;
76310;SDS011;65120;59.304;18.294;2023-03-21T11:11:18;2.47;;;0.30;;
76310;SDS011;65120;59.304;18.294;2023-03-21T11:16:22;2.00;;;0.50;;
76310;SDS011;65120;59.304;18.294;2023-03-21T11:18:50;2.30;;;0.20;;
76310;SDS011;65120;59.304;18.294;2023-03-21T11:21:21;0.63;;;0.10;;
76310;SDS011;65120;59.304;18.294;2023-03-21T11:23:53;1.55;;;0.10;;
76310;SDS011;65120;59.304;18.294;2023-03-21T11:26:26;0.10;;;0.10;;
76310;SDS011;65120;59.304;18.294;2023-03-21T11:28:56;0.17;;;0.10;;
76310;SDS011;65120;59.304;18.294;2023-03-21T11:31:35;0.10;;;0.00;;
76310;SDS011;65120;59.304;18.294;2023-03-21T11:34:04;2.28;;;0.10;;
76310;SDS011;65120;59.304;18.294;2023-03-21T11:36:33;0.10;;;0.10;;
76310;SDS011;65120;59.304;18.294;2023-03-21T11:39:13;2.13;;;0.10;;
76310;SDS011;65120;59.304;18.294;2023-03-21T11:41:54;0.40;;;0.13;;
76310;SDS011;65120;59.304;18.294;2023-03-21T11:44:29;0.43;;;0.10;;
76310;SDS011;65120;59.304;18.294;2023-03-21T11:46:58;0.75;;;0.20;;
76310;SDS011;65120;59.304;18.294;2023-03-21T11:49:25;0.40;;;0.22;;
76310;SDS011;65120;59.304;18.294;2023-03-21T11:51:57;0.30;;;0.10;;
76310;SDS011;65120;59.304;18.294;2023-03-21T11:54:47;0.70;;;0.65;;
76310;SDS011;65120;59.304;18.294;2023-03-21T11:57:26;0.20;;;0.10;;
76310;SDS011;65120;59.304;18.294;2023-03-21T12:00:02;2.17;;;0.13;;
76310;SDS011;65120;59.304;18.294;2023-03-21T12:05:36;1.23;;;0.20;;
76310;SDS011;65120;59.304;18.294;2023-03-21T12:08:11;2.22;;;0.22;;
76310;SDS011;65120;59.304;18.294;2023-03-21T12:10:52;1.58;;;0.20;;
76310;SDS011;65120;59.304;18.294;2023-03-21T12:13:38;0.10;;;0.10;;
76310;SDS011;65120;59.304;18.294;2023-03-21T12:16:18;0.32;;;0.00;;
76310;SDS011;65120;59.304;18.294;2023-03-21T12:18:58;0.95;;;0.10;;
76310;SDS011;65120;59.304;18.294;2023-03-21T12:21:37;0.50;;;0.00;;
76310;SDS011;65120;59.304;18.294;2023-03-21T12:24:13;1.17;;;0.95;;
76310;SDS011;65120;59.304;18.294;2023-03-21T12:26:46;2.95;;;0.10;;
76310;SDS011;65120;59.304;18.294;2023-03-21T12:29:31;0.80;;;0.22;;
76310;SDS011;65120;59.304;18.294;2023-03-21T12:32:19;0.63;;;0.10;;
76310;SDS011;65120;59.304;18.294;2023-03-21T12:35:01;1.55;;;0.10;;
76310;SDS011;65120;59.304;18.294;2023-03-21T12:37:36;1.20;;;0.13;;
76310;SDS011;65120;59.304;18.294;2023-03-21T12:40:11;0.40;;;0.15;;
76310;SDS011;65120;59.304;18.294;2023-03-21T12:42:59;3.65;;;1.30;;
76310;SDS011;65120;59.304;18.294;2023-03-21T12:45:40;1.38;;;0.10;;
76310;SDS011;65120;59.304;18.294;2023-03-21T12:48:14;0.75;;;0.10;;
76310;SDS011;65120;59.304;18.294;2023-03-21T12:50:47;1.55;;;0.15;;
76310;SDS011;65120;59.304;18.294;2023-03-21T12:53:26;2.97;;;0.17;;
76310;SDS011;65120;59.304;18.294;2023-03-21T12:56:01;2.95;;;0.20;;
76310;SDS011;65120;59.304;18.294;2023-03-21T12:58:38;0.65;;;0.10;;
76310;SDS011;65120;59.304;18.294;2023-03-21T13:01:12;0.30;;;0.10;;
76310;SDS011;65120;59.304;18.294;2023-03-21T13:03:43;1.35;;;0.10;;
76310;SDS011;65120;59.304;18.294;2023-03-21T13:06:15;2.83;;;0.05;;
76310;SDS011;65120;59.304;18.294;2023-03-21T13:08:45;0.30;;;0.10;;
76310;SDS011;65120;59.304;18.294;2023-03-21T13:11:16;0.28;;;0.17;;
76310;SDS011;65120;59.304;18.294;2023-03-21T13:13:45;0.93;;;0.10;;
76310;SDS011;65120;59.304;18.294;2023-03-21T13:16:18;0.57;;;0.10;;
76310;SDS011;65120;59.304;18.294;2023-03-21T13:18:53;0.55;;;0.10;;
76310;SDS011;65120;59.304;18.294;2023-03-21T13:21:30;0.10;;;0.10;;
76310;SDS011;65120;59.304;18.294;2023-03-21T13:24:16;0.60;;;0.10;;
76310;SDS011;65120;59.304;18.294;2023-03-21T13:26:46;2.50;;;0.40;;
76310;SDS011;65120;59.304;18.294;2023-03-21T13:29:21;1.38;;;0.10;;
76310;SDS011;65120;59.304;18.294;2023-03-21T13:31:52;0.28;;;0.00;;
76310;SDS011;65120;59.304;18.294;2023-03-21T13:34:21;0.20;;;0.10;;
76310;SDS011;65120;59.304;18.294;2023-03-21T13:36:49;0.32;;;0.03;;
76310;SDS011;65120;59.304;18.294;2023-03-21T13:39:17;1.20;;;0.00;;
76310;SDS011;65120;59.304;18.294;2023-03-21T13:41:49;0.30;;;0.10;;
76310;SDS011;65120;59.304;18.294;2023-03-21T13:44:22;1.95;;;0.10;;
76310;SDS011;65120;59.304;18.294;2023-03-21T13:46:53;0.98;;;0.00;;
76310;SDS011;65120;59.304;18.294;2023-03-21T13:49:25;0.65;;;0.00;;
76310;SDS011;65120;59.304;18.294;2023-03-21T13:51:54;3.10;;;0.00;;
76310;SDS011;65120;59.304;18.294;2023-03-21T13:54:28;0.70;;;0.10;;
76310;SDS011;65120;59.304;18.294;2023-03-21T13:57:19;1.95;;;0.00;;
76310;SDS011;65120;59.304;18.294;2023-03-21T13:59:47;0.70;;;0.60;;
76310;SDS011;65120;59.304;18.294;2023-03-21T14:02:26;0.80;;;0.10;;
76310;SDS011;65120;59.304;18.294;2023-03-21T14:04:59;1.00;;;0.00;;
76310;SDS011;65120;59.304;18.294;2023-03-21T14:07:28;0.38;;;0.03;;
76310;SDS011;65120;59.304;18.294;2023-03-21T14:09:58;1.63;;;0.08;;
76310;SDS011;65120;59.304;18.294;2023-03-21T14:12:28;1.38;;;0.00;;
76310;SDS011;65120;59.304;18.294;2023-03-21T14:15:00;0.35;;;0.10;;
76310;SDS011;65120;59.304;18.294;2023-03-21T14:17:32;0.03;;;0.00;;
76310;SDS011;65120;59.304;18.294;2023-03-21T14:20:00;1.90;;;0.00;;
76310;SDS011;65120;59.304;18.294;2023-03-21T14:22:36;1.38;;;0.10;;
76310;SDS011;65120;59.304;18.294;2023-03-21T14:25:05;0.50;;;0.00;;
76310;SDS011;65120;59.304;18.294;2023-03-21T14:27:33;0.20;;;0.10;;
76310;SDS011;65120;59.304;18.294;2023-03-21T14:30:03;0.32;;;0.00;;
76310;SDS011;65120;59.304;18.294;2023-03-21T14:32:32;0.10;;;0.00;;
76310;SDS011;65120;59.304;18.294;2023-03-21T14:35:00;0.35;;;0.00;;
76310;SDS011;65120;59.304;18.294;2023-03-21T14:37:29;0.20;;;0.00;;
76310;SDS011;65120;59.304;18.294;2023-03-21T14:39:58;0.10;;;0.00;;
76310;SDS011;65120;59.304;18.294;2023-03-21T14:42:30;0.90;;;0.00;;
76310;SDS011;65120;59.304;18.294;2023-03-21T14:44:59;2.17;;;0.08;;
76310;SDS011;65120;59.304;18.294;2023-03-21T14:47:41;0.52;;;0.00;;
76310;SDS011;65120;59.304;18.294;2023-03-21T14:50:20;0.00;;;0.00;;
76310;SDS011;65120;59.304;18.294;2023-03-21T14:52:51;0.35;;;0.10;;
76310;SDS011;65120;59.304;18.294;2023-03-21T14:55:18;0.80;;;0.00;;
76310;SDS011;65120;59.304;18.294;2023-03-21T14:57:45;2.03;;;0.00;;
76310;SDS011;65120;59.304;18.294;2023-03-21T15:00:15;3.75;;;0.00;;
76310;SDS011;65120;59.304;18.294;2023-03-21T15:02:49;4.05;;;0.20;;
76310;SDS011;65120;59.304;18.294;2023-03-21T15:05:19;0.05;;;0.00;;
76310;SDS011;65120;59.304;18.294;2023-03-21T15:07:54;0.00;;;0.00;;
76310;SDS011;65120;59.304;18.294;2023-03-21T15:10:22;0.20;;;0.10;;
76310;SDS011;65120;59.304;18.294;2023-03-21T15:12:51;0.10;;;0.00;;
76310;SDS011;65120;59.304;18.294;2023-03-21T15:15:21;3.30;;;0.10;;
76310;SDS011;65120;59.304;18.294;2023-03-21T15:17:52;0.03;;;0.00;;